createdAt,value
2022-12-23T00:00:35.948Z,11.50
2022-12-23T00:03:38.016Z,11.50
2022-12-23T00:06:40.091Z,11.50
2022-12-23T00:09:41.996Z,11.50
2022-12-23T00:12:43.976Z,11.50
2022-12-23T00:15:45.826Z,11.60
2022-12-23T00:18:47.710Z,11.50
2022-12-23T00:21:49.673Z,11.50
2022-12-23T00:24:51.672Z,11.50
2022-12-23T00:27:53.564Z,11.50
2022-12-23T00:31:07.121Z,11.60
2022-12-23T00:34:10.795Z,11.60
2022-12-23T00:37:12.678Z,11.60
2022-12-23T00:40:14.886Z,11.70
2022-12-23T00:43:16.781Z,11.70
2022-12-23T00:46:18.643Z,11.70
2022-12-23T00:49:21.150Z,11.70
2022-12-23T00:52:22.971Z,11.70
2022-12-23T00:55:25.382Z,11.80
2022-12-23T00:58:27.394Z,11.90
2022-12-23T01:01:29.541Z,11.90
2022-12-23T01:04:31.565Z,11.90
2022-12-23T01:07:33.652Z,12.00
2022-12-23T01:10:39.766Z,12.00
2022-12-23T01:13:41.646Z,12.00
2022-12-23T01:16:44.217Z,12.00
2022-12-23T01:19:46.066Z,12.10
2022-12-23T01:22:48.056Z,12.10
2022-12-23T01:25:56.785Z,12.10
2022-12-23T01:28:59.380Z,12.10
2022-12-23T01:32:01.272Z,12.20
2022-12-23T01:35:03.314Z,12.20
2022-12-23T01:38:05.169Z,12.20
2022-12-23T01:41:07.129Z,12.30
2022-12-23T01:44:46.489Z,12.30
2022-12-23T01:47:55.027Z,12.40
2022-12-23T01:51:01.640Z,12.30
2022-12-23T01:54:03.609Z,12.30
2022-12-23T01:57:05.662Z,12.40
2022-12-23T02:00:08.299Z,12.40
2022-12-23T02:03:10.319Z,12.40
2022-12-23T02:06:27.073Z,12.40
2022-12-23T02:09:32.039Z,12.40
2022-12-23T02:13:30.877Z,12.50
2022-12-23T02:16:38.929Z,12.50
2022-12-23T02:19:46.830Z,12.60
2022-12-23T02:23:21.716Z,12.60
2022-12-23T02:26:48.698Z,12.60
2022-12-23T02:30:05.517Z,12.70
2022-12-23T02:33:35.590Z,12.70
2022-12-23T02:37:07.444Z,12.70
2022-12-23T02:40:18.538Z,12.70
2022-12-23T02:43:29.394Z,12.70
2022-12-23T02:46:36.450Z,12.70
2022-12-23T02:49:45.359Z,12.60
2022-12-23T02:52:51.882Z,12.60
2022-12-23T02:55:56.369Z,12.70
2022-12-23T02:59:20.866Z,12.70
2022-12-23T03:02:23.008Z,12.70
2022-12-23T03:05:44.511Z,12.70
2022-12-23T03:08:47.358Z,12.80
2022-12-23T03:12:01.221Z,12.70
2022-12-23T03:15:29.538Z,12.70
2022-12-23T03:18:37.309Z,12.70
2022-12-23T03:22:06.430Z,12.70
2022-12-23T03:25:24.561Z,12.70
2022-12-23T03:28:45.554Z,12.80
2022-12-23T03:31:49.550Z,12.70
2022-12-23T03:34:57.020Z,12.80
2022-12-23T03:38:01.645Z,12.80
2022-12-23T03:41:13.678Z,12.70
2022-12-23T03:44:28.541Z,12.70
2022-12-23T03:47:44.080Z,12.70
2022-12-23T03:50:50.625Z,12.70
2022-12-23T03:53:57.585Z,12.70
2022-12-23T03:57:05.968Z,12.70
2022-12-23T04:00:08.564Z,12.70
2022-12-23T04:03:16.483Z,12.70
2022-12-23T04:06:20.479Z,12.70
2022-12-23T04:09:24.639Z,12.70
2022-12-23T04:12:27.825Z,12.70
2022-12-23T04:15:30.487Z,12.70
2022-12-23T04:18:32.602Z,12.70
2022-12-23T04:21:34.461Z,12.80
2022-12-23T04:24:36.826Z,12.90
2022-12-23T04:27:39.215Z,12.80
2022-12-23T04:30:41.075Z,12.70
2022-12-23T04:33:43.154Z,12.70
2022-12-23T04:36:45.056Z,12.80
2022-12-23T04:39:47.003Z,12.80
2022-12-23T04:42:48.918Z,12.80
2022-12-23T04:45:51.302Z,12.80
2022-12-23T04:48:53.339Z,12.70
2022-12-23T04:51:55.470Z,12.80
2022-12-23T04:54:57.361Z,12.80
2022-12-23T04:57:59.282Z,12.90
2022-12-23T05:01:09.381Z,12.90
2022-12-23T05:04:11.711Z,12.90
2022-12-23T05:07:13.664Z,12.90
2022-12-23T05:10:15.665Z,12.90
2022-12-23T05:13:17.703Z,13.00
2022-12-23T05:16:19.831Z,12.90
2022-12-23T05:19:21.975Z,13.00
2022-12-23T05:22:23.877Z,12.90
2022-12-23T05:25:25.852Z,12.90
2022-12-23T05:28:27.943Z,12.90
2022-12-23T05:31:29.832Z,12.90
2022-12-23T05:34:31.775Z,12.90
2022-12-23T05:37:33.859Z,12.90
2022-12-23T05:40:35.789Z,13.00
2022-12-23T05:43:37.923Z,12.90
2022-12-23T05:46:39.945Z,12.90
2022-12-23T05:49:41.926Z,12.90
2022-12-23T05:52:44.387Z,12.90
2022-12-23T05:55:46.779Z,13.00
2022-12-23T05:58:48.847Z,12.90
2022-12-23T06:01:54.403Z,12.90
2022-12-23T06:04:56.355Z,12.90
2022-12-23T06:07:58.284Z,12.90
2022-12-23T06:11:00.226Z,12.90
2022-12-23T06:14:02.209Z,13.00
2022-12-23T06:17:04.215Z,13.00
2022-12-23T06:20:06.959Z,12.90
2022-12-23T06:23:08.960Z,13.00
2022-12-23T06:26:11.018Z,12.90
2022-12-23T06:29:15.377Z,12.90
2022-12-23T06:32:17.331Z,12.90
2022-12-23T06:35:19.293Z,12.90
2022-12-23T06:38:21.530Z,12.90
2022-12-23T06:41:23.589Z,12.90
2022-12-23T06:44:25.550Z,12.90
2022-12-23T06:47:27.415Z,12.90
2022-12-23T06:50:31.600Z,12.90
2022-12-23T06:53:33.471Z,12.90
2022-12-23T06:56:35.402Z,12.90
2022-12-23T06:59:37.273Z,12.90
2022-12-23T07:02:39.290Z,12.90
2022-12-23T07:05:41.288Z,12.90
2022-12-23T07:08:45.678Z,12.90
2022-12-23T07:11:47.667Z,12.90
2022-12-23T07:14:49.579Z,12.80
2022-12-23T07:17:51.515Z,12.80
2022-12-23T07:20:53.646Z,12.70
2022-12-23T07:23:56.312Z,12.70
2022-12-23T07:26:58.219Z,12.80
2022-12-23T07:30:00.143Z,12.70
2022-12-23T07:33:02.416Z,12.80
2022-12-23T07:36:04.898Z,12.80
2022-12-23T07:39:06.839Z,12.80
2022-12-23T07:42:42.735Z,12.90
2022-12-23T07:45:30.825Z,12.90
2022-12-23T07:48:32.766Z,12.90
2022-12-23T07:51:34.826Z,12.90
2022-12-23T07:54:36.926Z,12.90
2022-12-23T07:57:39.036Z,12.90
2022-12-23T08:00:41.151Z,12.90
2022-12-23T08:03:43.227Z,13.00
2022-12-23T08:06:45.248Z,13.00
2022-12-23T08:09:47.181Z,13.00
2022-12-23T08:12:49.139Z,13.10
2022-12-23T08:15:58.384Z,13.10
2022-12-23T08:19:00.320Z,13.20
2022-12-23T08:22:02.246Z,13.20
2022-12-23T08:25:04.815Z,13.30
2022-12-23T08:28:06.705Z,13.20
2022-12-23T08:31:20.398Z,13.30
2022-12-23T08:34:22.483Z,13.30
2022-12-23T08:37:24.900Z,13.30
2022-12-23T08:40:26.862Z,13.40
2022-12-23T08:43:35.288Z,13.30
2022-12-23T08:46:38.724Z,13.20
2022-12-23T08:49:40.742Z,13.30
2022-12-23T08:52:44.879Z,13.20
2022-12-23T08:55:47.947Z,13.20
2022-12-23T08:58:51.861Z,13.10
2022-12-23T09:01:53.884Z,13.10
2022-12-23T09:04:55.862Z,13.10
2022-12-23T09:07:57.890Z,13.10
2022-12-23T09:11:00.817Z,13.10
2022-12-23T09:14:03.826Z,13.10
2022-12-23T09:17:05.770Z,13.10
2022-12-23T09:20:08.406Z,13.20
2022-12-23T09:23:10.398Z,13.20
2022-12-23T09:26:20.229Z,13.20
2022-12-23T09:29:22.164Z,13.30
2022-12-23T09:32:26.460Z,13.30
2022-12-23T09:35:28.309Z,13.40
2022-12-23T09:38:30.520Z,13.40
2022-12-23T09:42:14.444Z,13.40
2022-12-23T09:45:22.537Z,13.40
2022-12-23T09:48:28.716Z,13.40
2022-12-23T09:51:32.814Z,13.40
2022-12-23T09:54:54.418Z,13.30
2022-12-23T09:58:00.416Z,13.30
2022-12-23T10:01:02.314Z,13.30
2022-12-23T10:04:23.360Z,13.30
2022-12-23T10:07:55.967Z,13.30
2022-12-23T10:11:28.170Z,13.30
2022-12-23T10:14:32.043Z,13.20
2022-12-23T10:17:41.095Z,13.20
2022-12-23T10:21:05.229Z,13.30
2022-12-23T10:24:24.197Z,13.30
2022-12-23T10:27:38.903Z,13.20
2022-12-23T10:34:21.267Z,13.20
2022-12-23T10:37:45.548Z,13.20
2022-12-23T10:41:07.061Z,13.30
2022-12-23T10:44:48.702Z,13.40
2022-12-23T10:48:32.814Z,13.40
2022-12-23T10:51:45.507Z,13.40
2022-12-23T10:54:48.337Z,13.40
2022-12-23T10:57:52.323Z,13.50
2022-12-23T11:00:58.679Z,13.50
2022-12-23T11:04:08.335Z,13.60
2022-12-23T11:07:43.491Z,13.60
2022-12-23T11:10:40.470Z,13.70
2022-12-23T11:13:45.313Z,13.60
2022-12-23T11:16:47.305Z,13.70
2022-12-23T11:20:14.814Z,13.70
2022-12-23T11:23:27.609Z,13.70
2022-12-23T11:26:29.687Z,13.70
2022-12-23T11:29:36.105Z,13.70
2022-12-23T11:32:38.763Z,13.70
2022-12-23T11:35:40.780Z,13.70
2022-12-23T11:39:10.618Z,13.70
2022-12-23T11:42:17.397Z,13.70
2022-12-23T11:45:24.718Z,13.70
2022-12-23T11:48:29.328Z,13.70
2022-12-23T12:03:32.055Z,13.30
2022-12-23T12:06:34.828Z,13.40
2022-12-23T12:09:41.032Z,13.50
2022-12-23T12:12:43.384Z,13.50
2022-12-23T12:16:06.032Z,13.60
2022-12-23T12:19:31.903Z,13.60
2022-12-23T12:22:48.124Z,13.70
2022-12-23T12:26:02.034Z,13.70
2022-12-23T12:29:23.767Z,13.70
2022-12-23T12:32:53.850Z,13.70
2022-12-23T12:36:05.609Z,13.70
2022-12-23T12:39:15.772Z,13.70
2022-12-23T12:42:21.140Z,13.80
2022-12-23T12:45:25.056Z,13.80
2022-12-23T12:48:45.912Z,13.80
2022-12-23T12:52:12.179Z,13.90
2022-12-23T12:55:28.684Z,13.90
2022-12-23T12:58:30.591Z,13.90
2022-12-23T13:01:45.436Z,13.90
2022-12-23T13:05:05.367Z,13.90
2022-12-23T13:08:36.843Z,13.90
2022-12-23T13:11:54.132Z,13.80
2022-12-23T13:15:32.132Z,13.90
2022-12-23T13:18:50.031Z,13.90
2022-12-23T13:22:17.274Z,13.90
2022-12-23T13:25:26.936Z,13.90
2022-12-23T13:28:44.127Z,13.90
2022-12-23T13:31:57.369Z,14.00
2022-12-23T13:35:11.057Z,14.00
2022-12-23T13:38:50.158Z,14.00
2022-12-23T13:41:58.491Z,14.00
2022-12-23T13:45:05.772Z,14.00
2022-12-23T13:48:40.686Z,14.10
2022-12-23T13:51:56.810Z,14.00
2022-12-23T13:55:26.500Z,14.10
2022-12-23T13:58:30.042Z,14.10
2022-12-23T14:01:36.151Z,14.10
2022-12-23T14:04:58.594Z,14.10
2022-12-23T14:08:03.942Z,14.10
2022-12-23T14:11:29.140Z,14.20
2022-12-23T14:14:31.715Z,14.20
2022-12-23T14:18:04.282Z,14.20
2022-12-23T14:21:37.916Z,14.20
2022-12-23T14:25:17.367Z,14.30
2022-12-23T14:28:56.606Z,14.20
2022-12-23T14:31:59.418Z,14.20
2022-12-23T14:35:20.142Z,14.20
2022-12-23T14:38:28.010Z,14.40
2022-12-23T14:41:50.431Z,14.20
2022-12-23T14:44:52.637Z,14.30
2022-12-23T14:47:54.540Z,14.30
2022-12-23T14:51:10.002Z,14.30
2022-12-23T14:54:16.020Z,14.30
2022-12-23T14:57:22.145Z,14.30
2022-12-23T15:00:24.105Z,14.30
2022-12-23T15:03:35.092Z,14.40
2022-12-23T15:06:53.517Z,14.40
2022-12-23T15:10:01.864Z,14.40
2022-12-23T15:13:14.205Z,14.40
2022-12-23T15:16:19.665Z,14.40
2022-12-23T15:19:28.143Z,14.40
2022-12-23T15:22:33.850Z,14.40
2022-12-23T15:29:01.371Z,14.30
2022-12-23T15:32:04.669Z,14.40
2022-12-23T15:35:31.813Z,14.30
2022-12-23T15:38:37.468Z,14.30
2022-12-23T15:41:44.085Z,14.30
2022-12-23T15:44:46.558Z,14.40
2022-12-23T15:47:48.521Z,14.30
2022-12-23T15:54:04.451Z,14.40
2022-12-23T15:57:06.564Z,14.40
2022-12-23T16:00:19.738Z,14.30
2022-12-23T16:03:37.570Z,14.30
2022-12-23T16:06:39.588Z,14.30
2022-12-23T16:09:41.535Z,14.30
2022-12-23T16:12:44.050Z,14.30
2022-12-23T16:15:46.589Z,14.40
2022-12-23T16:18:48.750Z,14.40
2022-12-23T16:21:51.066Z,14.40
2022-12-23T16:25:22.999Z,14.40
2022-12-23T16:28:35.096Z,14.30
2022-12-23T16:31:37.868Z,14.40
2022-12-23T16:34:40.124Z,14.20
2022-12-23T16:37:49.316Z,14.30
2022-12-23T16:40:56.037Z,14.30
2022-12-23T16:43:57.969Z,14.30
2022-12-23T16:47:06.959Z,14.30
2022-12-23T16:50:14.339Z,14.40
2022-12-23T16:53:23.367Z,14.40
2022-12-23T16:56:33.148Z,14.40
2022-12-23T16:59:36.446Z,14.40
2022-12-23T17:02:39.127Z,14.40
2022-12-23T17:05:41.082Z,14.40
2022-12-23T17:08:43.327Z,14.40
2022-12-23T17:11:49.132Z,14.40
2022-12-23T17:15:00.186Z,14.40
2022-12-23T17:18:02.557Z,14.40
2022-12-23T17:24:26.427Z,14.40
2022-12-23T17:27:28.859Z,14.40
2022-12-23T17:30:32.519Z,14.40
2022-12-23T17:33:34.868Z,14.40
2022-12-23T17:39:45.783Z,14.40
2022-12-23T17:42:48.601Z,14.40
2022-12-23T17:45:50.962Z,14.30
2022-12-23T17:48:53.379Z,14.30
2022-12-23T17:51:57.431Z,14.20
2022-12-23T17:54:59.488Z,14.20
2022-12-23T17:58:04.002Z,14.20
2022-12-23T18:01:06.810Z,14.20
2022-12-23T18:04:08.943Z,14.30
2022-12-23T18:07:15.251Z,14.20
2022-12-23T18:10:20.160Z,14.20
2022-12-23T18:13:22.114Z,14.20
2022-12-23T18:16:24.256Z,14.20
2022-12-23T18:19:26.497Z,14.30
2022-12-23T18:22:31.193Z,14.30
2022-12-23T18:25:34.287Z,14.30
2022-12-23T18:28:36.173Z,14.30
2022-12-23T18:31:50.218Z,14.20
2022-12-23T18:34:57.345Z,14.20
2022-12-23T18:38:00.144Z,14.20
2022-12-23T18:41:11.699Z,14.20
2022-12-23T18:44:20.948Z,14.20
2022-12-23T18:47:29.086Z,14.20
2022-12-23T18:50:32.254Z,14.20
2022-12-23T18:53:34.293Z,14.10
2022-12-23T18:56:37.651Z,14.20
2022-12-23T18:59:39.626Z,14.10
2022-12-23T19:02:42.422Z,14.00
2022-12-23T19:05:50.931Z,13.90
2022-12-23T19:08:53.122Z,14.00
2022-12-23T19:11:58.154Z,13.90
2022-12-23T19:15:00.287Z,13.90
2022-12-23T19:18:02.254Z,13.90
2022-12-23T19:21:06.060Z,13.90
2022-12-23T19:24:14.141Z,13.90
2022-12-23T19:27:16.013Z,13.90
2022-12-23T19:30:18.605Z,13.90
2022-12-23T19:33:24.247Z,13.90
2022-12-23T19:36:26.274Z,13.90
2022-12-23T19:39:28.275Z,13.90
2022-12-23T19:42:41.622Z,13.90
2022-12-23T19:45:43.639Z,13.90
2022-12-23T19:48:51.569Z,13.90
2022-12-23T19:51:53.622Z,13.90
2022-12-23T19:54:55.537Z,13.90
2022-12-23T19:57:57.821Z,13.90
2022-12-23T20:01:12.426Z,13.90
2022-12-23T20:04:14.440Z,13.80
2022-12-23T20:07:16.719Z,13.80
2022-12-23T20:10:18.714Z,13.90
2022-12-23T20:13:23.468Z,13.80
2022-12-23T20:16:30.471Z,13.90
2022-12-23T20:19:33.109Z,13.90
2022-12-23T20:22:35.148Z,13.90
2022-12-23T20:25:37.121Z,13.90
2022-12-23T20:28:40.987Z,13.90
2022-12-23T20:31:46.363Z,14.00
2022-12-23T20:34:48.497Z,14.00
2022-12-23T20:37:50.927Z,13.90
2022-12-23T20:40:53.016Z,13.90
2022-12-23T20:47:30.105Z,14.00
2022-12-23T20:50:32.034Z,14.00
2022-12-23T20:53:34.811Z,13.90
2022-12-23T20:56:36.713Z,14.00
2022-12-23T20:59:38.592Z,14.00
2022-12-23T21:02:41.494Z,13.90
2022-12-23T21:05:43.724Z,14.00
2022-12-23T21:08:45.708Z,13.90
2022-12-23T21:11:48.113Z,13.90
2022-12-23T21:14:50.018Z,13.90
2022-12-23T21:17:58.682Z,13.90
2022-12-23T21:21:04.213Z,13.90
2022-12-23T21:24:06.509Z,13.80
2022-12-23T21:27:08.417Z,13.50
2022-12-23T21:30:10.805Z,13.20
2022-12-23T21:33:12.861Z,13.00
2022-12-23T21:36:20.696Z,12.90
2022-12-23T21:39:22.892Z,12.90
2022-12-23T21:42:24.924Z,12.90
2022-12-23T21:45:29.763Z,12.90
2022-12-23T21:48:33.870Z,12.90
2022-12-23T21:51:39.982Z,12.90
2022-12-23T21:54:42.415Z,12.90
2022-12-23T21:57:47.091Z,12.90
2022-12-23T22:00:49.204Z,12.90
2022-12-23T22:03:54.289Z,12.90
2022-12-23T22:10:03.533Z,12.90
2022-12-23T22:13:06.457Z,13.00
2022-12-23T22:16:20.488Z,13.00
2022-12-23T22:19:22.465Z,13.00
2022-12-23T22:22:24.437Z,12.90
2022-12-23T22:25:26.292Z,12.90
2022-12-23T22:28:30.803Z,12.80
2022-12-23T22:31:52.862Z,12.80
2022-12-23T22:34:54.928Z,12.90
2022-12-23T22:37:56.863Z,13.10
2022-12-23T22:40:58.723Z,13.20
2022-12-23T22:44:00.766Z,13.30
2022-12-23T22:47:02.991Z,13.30
2022-12-23T22:50:05.599Z,13.40
2022-12-23T22:53:07.553Z,13.50
2022-12-23T22:56:12.702Z,13.40
2022-12-23T22:59:23.911Z,13.40
2022-12-23T23:02:26.277Z,13.40
2022-12-23T23:05:28.316Z,13.30
2022-12-23T23:08:30.908Z,13.20
2022-12-23T23:11:40.239Z,13.20
2022-12-23T23:14:42.153Z,13.10
2022-12-23T23:17:44.068Z,13.10
2022-12-23T23:20:47.353Z,13.00
2022-12-23T23:23:49.804Z,13.00
2022-12-23T23:26:52.456Z,13.00
2022-12-23T23:29:56.943Z,13.00
2022-12-23T23:32:58.967Z,12.90
2022-12-23T23:36:00.888Z,12.90
2022-12-23T23:39:02.933Z,12.90
2022-12-23T23:42:05.007Z,12.90
2022-12-23T23:45:07.994Z,12.90
2022-12-23T23:48:12.976Z,12.90
2022-12-23T23:51:14.957Z,12.90
2022-12-23T23:54:20.556Z,12.80
2022-12-23T23:57:23.157Z,12.90
